sensor_id;sensor_type;location;lat;lon;timestamp;P1;durP1;ratioP1;P2;durP2;ratioP2
1294;SDS011;640;48.310;11.728;2023-01-15T00:00:03;2.28;;;1.13;;
1294;SDS011;640;48.310;11.728;2023-01-15T00:02:32;2.38;;;1.38;;
1294;SDS011;640;48.310;11.728;2023-01-15T00:05:02;2.03;;;0.95;;
1294;SDS011;640;48.310;11.728;2023-01-15T00:07:31;2.88;;;1.30;;
1294;SDS011;640;48.310;11.728;2023-01-15T00:09:59;1.88;;;1.17;;
1294;SDS011;640;48.310;11.728;2023-01-15T00:12:28;2.28;;;1.30;;
1294;SDS011;640;48.310;11.728;2023-01-15T00:14:56;1.77;;;1.10;;
1294;SDS011;640;48.310;11.728;2023-01-15T00:17:24;2.42;;;1.40;;
1294;SDS011;640;48.310;11.728;2023-01-15T00:19:53;3.00;;;1.90;;
1294;SDS011;640;48.310;11.728;2023-01-15T00:22:23;3.70;;;1.50;;
1294;SDS011;640;48.310;11.728;2023-01-15T00:24:51;1.27;;;0.83;;
1294;SDS011;640;48.310;11.728;2023-01-15T00:27:37;2.00;;;1.10;;
1294;SDS011;640;48.310;11.728;2023-01-15T00:30:06;3.42;;;0.90;;
1294;SDS011;640;48.310;11.728;2023-01-15T00:32:36;1.42;;;1.10;;
1294;SDS011;640;48.310;11.728;2023-01-15T00:35:05;2.15;;;0.82;;
1294;SDS011;640;48.310;11.728;2023-01-15T00:37:36;0.90;;;0.77;;
1294;SDS011;640;48.310;11.728;2023-01-15T00:40:05;2.33;;;1.00;;
1294;SDS011;640;48.310;11.728;2023-01-15T00:42:33;1.90;;;0.90;;
1294;SDS011;640;48.310;11.728;2023-01-15T00:45:02;2.65;;;1.20;;
1294;SDS011;640;48.310;11.728;2023-01-15T00:47:36;6.50;;;2.10;;
1294;SDS011;640;48.310;11.728;2023-01-15T00:50:05;4.82;;;2.30;;
1294;SDS011;640;48.310;11.728;2023-01-15T00:52:35;2.63;;;1.23;;
1294;SDS011;640;48.310;11.728;2023-01-15T00:55:05;1.65;;;0.90;;
1294;SDS011;640;48.310;11.728;2023-01-15T00:57:34;1.50;;;0.88;;
1294;SDS011;640;48.310;11.728;2023-01-15T01:00:03;1.92;;;0.70;;
1294;SDS011;640;48.310;11.728;2023-01-15T01:02:32;1.77;;;0.73;;
1294;SDS011;640;48.310;11.728;2023-01-15T01:05:01;3.08;;;0.77;;
1294;SDS011;640;48.310;11.728;2023-01-15T01:07:30;1.20;;;0.73;;
1294;SDS011;640;48.310;11.728;2023-01-15T01:09:59;1.25;;;0.70;;
1294;SDS011;640;48.310;11.728;2023-01-15T01:12:28;1.30;;;0.80;;
1294;SDS011;640;48.310;11.728;2023-01-15T01:14:56;2.83;;;0.93;;
1294;SDS011;640;48.310;11.728;2023-01-15T01:17:24;1.63;;;1.10;;
1294;SDS011;640;48.310;11.728;2023-01-15T01:19:53;1.65;;;0.95;;
1294;SDS011;640;48.310;11.728;2023-01-15T01:22:21;1.58;;;0.90;;
1294;SDS011;640;48.310;11.728;2023-01-15T01:24:50;2.95;;;1.20;;
1294;SDS011;640;48.310;11.728;2023-01-15T01:27:19;2.30;;;1.85;;
1294;SDS011;640;48.310;11.728;2023-01-15T01:29:48;4.80;;;1.10;;
1294;SDS011;640;48.310;11.728;2023-01-15T01:32:16;1.77;;;1.10;;
1294;SDS011;640;48.310;11.728;2023-01-15T01:34:44;2.17;;;1.08;;
1294;SDS011;640;48.310;11.728;2023-01-15T01:37:13;0.90;;;0.73;;
1294;SDS011;640;48.310;11.728;2023-01-15T01:39:41;1.33;;;0.80;;
1294;SDS011;640;48.310;11.728;2023-01-15T01:42:10;3.40;;;0.93;;
1294;SDS011;640;48.310;11.728;2023-01-15T01:47:28;1.80;;;1.08;;
1294;SDS011;640;48.310;11.728;2023-01-15T01:49:59;1.40;;;1.00;;
1294;SDS011;640;48.310;11.728;2023-01-15T01:52:31;1.00;;;0.70;;
1294;SDS011;640;48.310;11.728;2023-01-15T01:55:03;1.90;;;0.98;;
1294;SDS011;640;48.310;11.728;2023-01-15T01:57:31;2.15;;;0.93;;
1294;SDS011;640;48.310;11.728;2023-01-15T02:00:02;1.70;;;1.17;;
1294;SDS011;640;48.310;11.728;2023-01-15T02:02:32;3.13;;;1.25;;
1294;SDS011;640;48.310;11.728;2023-01-15T02:05:02;1.83;;;1.05;;
1294;SDS011;640;48.310;11.728;2023-01-15T02:07:31;1.85;;;1.10;;
1294;SDS011;640;48.310;11.728;2023-01-15T02:10:00;1.75;;;1.00;;
1294;SDS011;640;48.310;11.728;2023-01-15T02:12:30;4.10;;;1.20;;
1294;SDS011;640;48.310;11.728;2023-01-15T02:15:04;1.35;;;1.00;;
1294;SDS011;640;48.310;11.728;2023-01-15T02:17:40;1.92;;;1.17;;
1294;SDS011;640;48.310;11.728;2023-01-15T02:20:15;1.60;;;1.10;;
1294;SDS011;640;48.310;11.728;2023-01-15T02:22:54;2.15;;;1.30;;
1294;SDS011;640;48.310;11.728;2023-01-15T02:25:30;1.75;;;1.27;;
1294;SDS011;640;48.310;11.728;2023-01-15T02:28:03;1.83;;;1.25;;
1294;SDS011;640;48.310;11.728;2023-01-15T02:30:36;2.20;;;1.45;;
1294;SDS011;640;48.310;11.728;2023-01-15T02:33:07;3.30;;;1.48;;
1294;SDS011;640;48.310;11.728;2023-01-15T02:35:39;2.75;;;1.65;;
1294;SDS011;640;48.310;11.728;2023-01-15T02:38:10;3.35;;;1.70;;
1294;SDS011;640;48.310;11.728;2023-01-15T02:40:42;2.13;;;1.67;;
1294;SDS011;640;48.310;11.728;2023-01-15T02:43:12;3.28;;;1.58;;
1294;SDS011;640;48.310;11.728;2023-01-15T02:45:41;2.17;;;1.50;;
1294;SDS011;640;48.310;11.728;2023-01-15T02:48:12;3.30;;;1.40;;
1294;SDS011;640;48.310;11.728;2023-01-15T02:50:43;2.47;;;1.75;;
1294;SDS011;640;48.310;11.728;2023-01-15T02:53:13;2.10;;;1.52;;
1294;SDS011;640;48.310;11.728;2023-01-15T02:55:46;2.05;;;1.40;;
1294;SDS011;640;48.310;11.728;2023-01-15T02:58:19;2.83;;;1.55;;
1294;SDS011;640;48.310;11.728;2023-01-15T03:00:49;1.73;;;1.42;;
1294;SDS011;640;48.310;11.728;2023-01-15T03:03:20;2.85;;;1.60;;
1294;SDS011;640;48.310;11.728;2023-01-15T03:05:53;2.13;;;1.50;;
1294;SDS011;640;48.310;11.728;2023-01-15T03:08:26;2.55;;;1.52;;
1294;SDS011;640;48.310;11.728;2023-01-15T03:10:57;2.53;;;1.50;;
1294;SDS011;640;48.310;11.728;2023-01-15T03:13:34;2.95;;;2.08;;
1294;SDS011;640;48.310;11.728;2023-01-15T03:16:11;2.13;;;1.40;;
1294;SDS011;640;48.310;11.728;2023-01-15T03:21:34;2.28;;;1.63;;
1294;SDS011;640;48.310;11.728;2023-01-15T03:24:07;2.13;;;1.55;;
1294;SDS011;640;48.310;11.728;2023-01-15T03:26:37;2.45;;;1.50;;
1294;SDS011;640;48.310;11.728;2023-01-15T03:29:07;2.55;;;1.58;;
1294;SDS011;640;48.310;11.728;2023-01-15T03:31:36;2.53;;;1.50;;
1294;SDS011;640;48.310;11.728;2023-01-15T03:34:04;2.10;;;1.40;;
1294;SDS011;640;48.310;11.728;2023-01-15T03:36:33;2.55;;;1.40;;
1294;SDS011;640;48.310;11.728;2023-01-15T03:39:02;2.05;;;1.30;;
1294;SDS011;640;48.310;11.728;2023-01-15T03:41:34;2.10;;;1.35;;
1294;SDS011;640;48.310;11.728;2023-01-15T03:44:12;1.23;;;1.02;;
1294;SDS011;640;48.310;11.728;2023-01-15T03:46:54;1.88;;;1.10;;
1294;SDS011;640;48.310;11.728;2023-01-15T03:49:31;1.55;;;1.05;;
1294;SDS011;640;48.310;11.728;2023-01-15T03:52:07;2.10;;;0.98;;
1294;SDS011;640;48.310;11.728;2023-01-15T03:54:41;1.88;;;1.10;;
1294;SDS011;640;48.310;11.728;2023-01-15T03:57:12;2.40;;;1.00;;
1294;SDS011;640;48.310;11.728;2023-01-15T03:59:46;1.85;;;1.10;;
1294;SDS011;640;48.310;11.728;2023-01-15T04:02:17;2.83;;;1.10;;
1294;SDS011;640;48.310;11.728;2023-01-15T04:04:46;2.38;;;0.90;;
1294;SDS011;640;48.310;11.728;2023-01-15T04:07:15;2.05;;;1.13;;
1294;SDS011;640;48.310;11.728;2023-01-15T04:09:43;1.92;;;1.10;;
1294;SDS011;640;48.310;11.728;2023-01-15T04:12:12;1.73;;;0.95;;
1294;SDS011;640;48.310;11.728;2023-01-15T04:14:40;2.28;;;0.90;;
1294;SDS011;640;48.310;11.728;2023-01-15T04:17:10;2.58;;;0.90;;
1294;SDS011;640;48.310;11.728;2023-01-15T04:19:38;2.83;;;1.08;;
1294;SDS011;640;48.310;11.728;2023-01-15T04:22:07;1.83;;;1.00;;
1294;SDS011;640;48.310;11.728;2023-01-15T04:24:36;2.00;;;0.93;;
1294;SDS011;640;48.310;11.728;2023-01-15T04:27:04;1.55;;;0.90;;
1294;SDS011;640;48.310;11.728;2023-01-15T04:29:33;2.53;;;1.40;;
1294;SDS011;640;48.310;11.728;2023-01-15T04:32:01;1.60;;;1.00;;
1294;SDS011;640;48.310;11.728;2023-01-15T04:34:31;1.20;;;0.88;;
1294;SDS011;640;48.310;11.728;2023-01-15T04:37:00;2.30;;;1.10;;
1294;SDS011;640;48.310;11.728;2023-01-15T04:39:29;1.88;;;1.20;;
1294;SDS011;640;48.310;11.728;2023-01-15T04:41:57;1.73;;;1.13;;
1294;SDS011;640;48.310;11.728;2023-01-15T04:44:43;2.42;;;1.17;;
1294;SDS011;640;48.310;11.728;2023-01-15T04:47:11;1.63;;;1.10;;
1294;SDS011;640;48.310;11.728;2023-01-15T04:49:41;3.75;;;1.33;;
1294;SDS011;640;48.310;11.728;2023-01-15T04:52:09;1.67;;;1.35;;
1294;SDS011;640;48.310;11.728;2023-01-15T04:54:38;2.35;;;1.40;;
1294;SDS011;640;48.310;11.728;2023-01-15T04:57:06;2.90;;;1.50;;
1294;SDS011;640;48.310;11.728;2023-01-15T04:59:35;1.98;;;1.52;;
1294;SDS011;640;48.310;11.728;2023-01-15T05:02:03;2.10;;;1.50;;
1294;SDS011;640;48.310;11.728;2023-01-15T05:04:32;3.28;;;1.60;;
1294;SDS011;640;48.310;11.728;2023-01-15T05:07:03;2.22;;;1.40;;
1294;SDS011;640;48.310;11.728;2023-01-15T05:09:32;2.42;;;1.85;;
1294;SDS011;640;48.310;11.728;2023-01-15T05:12:00;2.80;;;1.35;;
1294;SDS011;640;48.310;11.728;2023-01-15T05:14:28;1.50;;;1.30;;
1294;SDS011;640;48.310;11.728;2023-01-15T05:16:57;2.83;;;1.30;;
1294;SDS011;640;48.310;11.728;2023-01-15T05:19:25;1.85;;;1.27;;
1294;SDS011;640;48.310;11.728;2023-01-15T05:21:53;1.55;;;1.30;;
1294;SDS011;640;48.310;11.728;2023-01-15T05:24:23;3.03;;;1.10;;
1294;SDS011;640;48.310;11.728;2023-01-15T05:26:51;1.90;;;1.30;;
1294;SDS011;640;48.310;11.728;2023-01-15T05:29:21;2.67;;;1.02;;
1294;SDS011;640;48.310;11.728;2023-01-15T05:31:49;2.47;;;1.10;;
1294;SDS011;640;48.310;11.728;2023-01-15T05:34:17;1.98;;;1.20;;
1294;SDS011;640;48.310;11.728;2023-01-15T05:36:45;1.88;;;1.00;;
1294;SDS011;640;48.310;11.728;2023-01-15T05:39:14;3.40;;;1.27;;
1294;SDS011;640;48.310;11.728;2023-01-15T05:41:43;1.90;;;1.05;;
1294;SDS011;640;48.310;11.728;2023-01-15T05:44:20;1.40;;;0.90;;
1294;SDS011;640;48.310;11.728;2023-01-15T05:46:50;2.78;;;1.20;;
1294;SDS011;640;48.310;11.728;2023-01-15T05:49:21;1.58;;;0.95;;
1294;SDS011;640;48.310;11.728;2023-01-15T05:54:21;1.80;;;1.20;;
1294;SDS011;640;48.310;11.728;2023-01-15T05:56:52;2.25;;;1.10;;
1294;SDS011;640;48.310;11.728;2023-01-15T05:59:21;3.60;;;1.10;;
1294;SDS011;640;48.310;11.728;2023-01-15T06:04:19;2.38;;;0.77;;
1294;SDS011;640;48.310;11.728;2023-01-15T06:06:48;1.13;;;0.82;;
1294;SDS011;640;48.310;11.728;2023-01-15T06:09:17;1.50;;;0.63;;
1294;SDS011;640;48.310;11.728;2023-01-15T06:11:46;1.30;;;0.77;;
1294;SDS011;640;48.310;11.728;2023-01-15T06:14:15;1.30;;;0.90;;
1294;SDS011;640;48.310;11.728;2023-01-15T06:16:44;2.23;;;0.90;;
1294;SDS011;640;48.310;11.728;2023-01-15T06:19:13;1.02;;;0.98;;
1294;SDS011;640;48.310;11.728;2023-01-15T06:21:41;1.10;;;1.00;;
1294;SDS011;640;48.310;11.728;2023-01-15T06:24:10;1.25;;;1.00;;
1294;SDS011;640;48.310;11.728;2023-01-15T06:26:42;1.00;;;1.00;;
1294;SDS011;640;48.310;11.728;2023-01-15T06:29:10;2.25;;;0.90;;
1294;SDS011;640;48.310;11.728;2023-01-15T06:31:44;1.00;;;1.00;;
1294;SDS011;640;48.310;11.728;2023-01-15T06:34:13;1.15;;;1.00;;
1294;SDS011;640;48.310;11.728;2023-01-15T06:36:42;0.93;;;0.90;;
1294;SDS011;640;48.310;11.728;2023-01-15T06:39:10;0.52;;;0.52;;
1294;SDS011;640;48.310;11.728;2023-01-15T06:41:39;0.50;;;0.50;;
1294;SDS011;640;48.310;11.728;2023-01-15T06:44:25;0.30;;;0.30;;
1294;SDS011;640;48.310;11.728;2023-01-15T06:47:13;0.35;;;0.30;;
1294;SDS011;640;48.310;11.728;2023-01-15T06:49:50;0.38;;;0.38;;
1294;SDS011;640;48.310;11.728;2023-01-15T06:52:20;0.25;;;0.25;;
1294;SDS011;640;48.310;11.728;2023-01-15T06:54:49;0.15;;;0.15;;
1294;SDS011;640;48.310;11.728;2023-01-15T06:57:17;0.20;;;0.20;;
1294;SDS011;640;48.310;11.728;2023-01-15T06:59:46;0.32;;;0.20;;
1294;SDS011;640;48.310;11.728;2023-01-15T07:02:16;0.95;;;0.10;;
1294;SDS011;640;48.310;11.728;2023-01-15T07:04:44;0.20;;;0.20;;
1294;SDS011;640;48.310;11.728;2023-01-15T07:07:13;0.10;;;0.10;;
1294;SDS011;640;48.310;11.728;2023-01-15T07:09:42;0.20;;;0.20;;
1294;SDS011;640;48.310;11.728;2023-01-15T07:12:11;0.22;;;0.10;;
1294;SDS011;640;48.310;11.728;2023-01-15T07:14:39;0.17;;;0.17;;
1294;SDS011;640;48.310;11.728;2023-01-15T07:17:08;1.17;;;0.30;;
1294;SDS011;640;48.310;11.728;2023-01-15T07:19:37;0.10;;;0.10;;
1294;SDS011;640;48.310;11.728;2023-01-15T07:22:06;0.20;;;0.20;;
1294;SDS011;640;48.310;11.728;2023-01-15T07:24:36;0.20;;;0.20;;
1294;SDS011;640;48.310;11.728;2023-01-15T07:27:04;0.20;;;0.20;;
1294;SDS011;640;48.310;11.728;2023-01-15T07:29:32;1.23;;;0.20;;
1294;SDS011;640;48.310;11.728;2023-01-15T07:32:01;0.30;;;0.17;;
1294;SDS011;640;48.310;11.728;2023-01-15T07:34:29;0.10;;;0.10;;
1294;SDS011;640;48.310;11.728;2023-01-15T07:36:59;0.10;;;0.10;;
1294;SDS011;640;48.310;11.728;2023-01-15T07:39:27;0.20;;;0.20;;
1294;SDS011;640;48.310;11.728;2023-01-15T07:41:57;0.10;;;0.10;;
1294;SDS011;640;48.310;11.728;2023-01-15T07:44:43;1.17;;;0.20;;
1294;SDS011;640;48.310;11.728;2023-01-15T07:47:29;0.20;;;0.20;;
1294;SDS011;640;48.310;11.728;2023-01-15T07:50:16;0.20;;;0.20;;
1294;SDS011;640;48.310;11.728;2023-01-15T07:52:46;0.30;;;0.30;;
1294;SDS011;640;48.310;11.728;2023-01-15T07:55:18;0.22;;;0.20;;
1294;SDS011;640;48.310;11.728;2023-01-15T07:57:47;0.35;;;0.35;;
1294;SDS011;640;48.310;11.728;2023-01-15T08:00:18;0.40;;;0.40;;
1294;SDS011;640;48.310;11.728;2023-01-15T08:02:47;0.20;;;0.20;;
1294;SDS011;640;48.310;11.728;2023-01-15T08:05:16;1.95;;;0.50;;
1294;SDS011;640;48.310;11.728;2023-01-15T08:07:46;0.45;;;0.45;;
1294;SDS011;640;48.310;11.728;2023-01-15T08:10:16;0.95;;;0.70;;
1294;SDS011;640;48.310;11.728;2023-01-15T08:12:47;0.40;;;0.40;;
1294;SDS011;640;48.310;11.728;2023-01-15T08:15:37;0.60;;;0.60;;
1294;SDS011;640;48.310;11.728;2023-01-15T08:18:06;0.60;;;0.60;;
1294;SDS011;640;48.310;11.728;2023-01-15T08:20:34;0.30;;;0.30;;
1294;SDS011;640;48.310;11.728;2023-01-15T08:23:04;0.70;;;0.57;;
1294;SDS011;640;48.310;11.728;2023-01-15T08:25:33;0.47;;;0.47;;
1294;SDS011;640;48.310;11.728;2023-01-15T08:28:01;0.30;;;0.30;;
1294;SDS011;640;48.310;11.728;2023-01-15T08:30:29;0.73;;;0.60;;
1294;SDS011;640;48.310;11.728;2023-01-15T08:32:58;0.95;;;0.70;;
1294;SDS011;640;48.310;11.728;2023-01-15T08:37:56;0.77;;;0.77;;
1294;SDS011;640;48.310;11.728;2023-01-15T08:40:26;0.80;;;0.80;;
1294;SDS011;640;48.310;11.728;2023-01-15T08:42:54;1.13;;;1.00;;
1294;SDS011;640;48.310;11.728;2023-01-15T08:45:23;1.13;;;1.00;;
1294;SDS011;640;48.310;11.728;2023-01-15T08:47:53;1.65;;;1.40;;
1294;SDS011;640;48.310;11.728;2023-01-15T08:50:22;1.27;;;1.00;;
1294;SDS011;640;48.310;11.728;2023-01-15T08:52:50;0.82;;;0.82;;
1294;SDS011;640;48.310;11.728;2023-01-15T08:55:18;0.73;;;0.73;;
1294;SDS011;640;48.310;11.728;2023-01-15T08:57:48;1.17;;;1.08;;
1294;SDS011;640;48.310;11.728;2023-01-15T09:00:17;0.70;;;0.70;;
1294;SDS011;640;48.310;11.728;2023-01-15T09:02:47;2.50;;;1.50;;
1294;SDS011;640;48.310;11.728;2023-01-15T09:05:16;0.80;;;0.80;;
1294;SDS011;640;48.310;11.728;2023-01-15T09:07:44;1.48;;;1.00;;
1294;SDS011;640;48.310;11.728;2023-01-15T09:10:13;1.00;;;1.00;;
1294;SDS011;640;48.310;11.728;2023-01-15T09:12:41;0.85;;;0.85;;
1294;SDS011;640;48.310;11.728;2023-01-15T09:15:11;2.75;;;1.10;;
1294;SDS011;640;48.310;11.728;2023-01-15T09:17:39;1.85;;;0.90;;
1294;SDS011;640;48.310;11.728;2023-01-15T09:20:08;0.88;;;0.88;;
1294;SDS011;640;48.310;11.728;2023-01-15T09:22:38;0.90;;;0.90;;
1294;SDS011;640;48.310;11.728;2023-01-15T09:25:07;1.33;;;1.00;;
1294;SDS011;640;48.310;11.728;2023-01-15T09:27:35;0.80;;;0.80;;
1294;SDS011;640;48.310;11.728;2023-01-15T09:30:05;0.80;;;0.80;;
1294;SDS011;640;48.310;11.728;2023-01-15T09:32:35;0.80;;;0.80;;
1294;SDS011;640;48.310;11.728;2023-01-15T09:35:03;0.80;;;0.80;;
1294;SDS011;640;48.310;11.728;2023-01-15T09:37:32;0.80;;;0.80;;
1294;SDS011;640;48.310;11.728;2023-01-15T09:40:00;0.88;;;0.80;;
1294;SDS011;640;48.310;11.728;2023-01-15T09:42:35;0.90;;;0.90;;
1294;SDS011;640;48.310;11.728;2023-01-15T09:45:13;0.88;;;0.88;;
1294;SDS011;640;48.310;11.728;2023-01-15T09:47:49;0.30;;;0.30;;
1294;SDS011;640;48.310;11.728;2023-01-15T09:50:43;2.10;;;0.70;;
1294;SDS011;640;48.310;11.728;2023-01-15T09:53:19;0.30;;;0.30;;
1294;SDS011;640;48.310;11.728;2023-01-15T09:58:26;0.30;;;0.25;;
1294;SDS011;640;48.310;11.728;2023-01-15T10:00:58;0.50;;;0.50;;
1294;SDS011;640;48.310;11.728;2023-01-15T10:03:32;0.50;;;0.50;;
1294;SDS011;640;48.310;11.728;2023-01-15T10:06:06;1.00;;;1.00;;
1294;SDS011;640;48.310;11.728;2023-01-15T10:08:37;1.02;;;1.02;;
1294;SDS011;640;48.310;11.728;2023-01-15T10:11:17;0.60;;;0.60;;
1294;SDS011;640;48.310;11.728;2023-01-15T10:14:10;0.60;;;0.45;;
1294;SDS011;640;48.310;11.728;2023-01-15T10:16:41;0.30;;;0.30;;
1294;SDS011;640;48.310;11.728;2023-01-15T10:19:11;1.00;;;1.00;;
1294;SDS011;640;48.310;11.728;2023-01-15T10:21:42;1.57;;;0.60;;
1294;SDS011;640;48.310;11.728;2023-01-15T10:24:17;0.80;;;0.80;;
1294;SDS011;640;48.310;11.728;2023-01-15T10:26:47;0.70;;;0.70;;
1294;SDS011;640;48.310;11.728;2023-01-15T10:29:22;0.75;;;0.75;;
1294;SDS011;640;48.310;11.728;2023-01-15T10:31:57;0.63;;;0.63;;
1294;SDS011;640;48.310;11.728;2023-01-15T10:37:26;0.60;;;0.60;;
1294;SDS011;640;48.310;11.728;2023-01-15T10:40:04;0.52;;;0.52;;
1294;SDS011;640;48.310;11.728;2023-01-15T10:42:43;0.50;;;0.50;;
1294;SDS011;640;48.310;11.728;2023-01-15T10:45:19;0.75;;;0.60;;
1294;SDS011;640;48.310;11.728;2023-01-15T10:47:49;0.50;;;0.50;;
1294;SDS011;640;48.310;11.728;2023-01-15T10:50:21;0.45;;;0.45;;
1294;SDS011;640;48.310;11.728;2023-01-15T10:52:51;0.63;;;0.63;;
1294;SDS011;640;48.310;11.728;2023-01-15T10:55:29;1.00;;;1.00;;
1294;SDS011;640;48.310;11.728;2023-01-15T10:58:02;0.60;;;0.60;;
1294;SDS011;640;48.310;11.728;2023-01-15T11:00:36;0.50;;;0.50;;
1294;SDS011;640;48.310;11.728;2023-01-15T11:03:09;0.50;;;0.50;;
1294;SDS011;640;48.310;11.728;2023-01-15T11:05:42;0.60;;;0.60;;
1294;SDS011;640;48.310;11.728;2023-01-15T11:08:13;0.70;;;0.70;;
1294;SDS011;640;48.310;11.728;2023-01-15T11:11:11;0.50;;;0.50;;
1294;SDS011;640;48.310;11.728;2023-01-15T11:13:50;0.75;;;0.60;;
1294;SDS011;640;48.310;11.728;2023-01-15T11:16:37;0.60;;;0.60;;
1294;SDS011;640;48.310;11.728;2023-01-15T11:19:25;0.60;;;0.60;;
1294;SDS011;640;48.310;11.728;2023-01-15T11:22:11;0.70;;;0.70;;
1294;SDS011;640;48.310;11.728;2023-01-15T11:24:44;0.70;;;0.70;;
1294;SDS011;640;48.310;11.728;2023-01-15T11:27:15;0.60;;;0.60;;
1294;SDS011;640;48.310;11.728;2023-01-15T11:29:49;0.80;;;0.80;;
1294;SDS011;640;48.310;11.728;2023-01-15T11:32:20;0.80;;;0.80;;
1294;SDS011;640;48.310;11.728;2023-01-15T11:34:52;0.60;;;0.60;;
1294;SDS011;640;48.310;11.728;2023-01-15T11:37:22;0.80;;;0.80;;
1294;SDS011;640;48.310;11.728;2023-01-15T11:39:51;0.60;;;0.60;;
1294;SDS011;640;48.310;11.728;2023-01-15T11:42:21;1.10;;;1.10;;
1294;SDS011;640;48.310;11.728;2023-01-15T11:45:11;0.80;;;0.80;;
1294;SDS011;640;48.310;11.728;2023-01-15T11:47:58;1.10;;;1.10;;
1294;SDS011;640;48.310;11.728;2023-01-15T11:50:48;1.40;;;1.35;;
1294;SDS011;640;48.310;11.728;2023-01-15T11:53:21;1.60;;;1.50;;
1294;SDS011;640;48.310;11.728;2023-01-15T11:55:51;1.70;;;1.60;;
1294;SDS011;640;48.310;11.728;2023-01-15T11:58:22;1.45;;;1.45;;
1294;SDS011;640;48.310;11.728;2023-01-15T12:00:51;1.40;;;1.40;;
1294;SDS011;640;48.310;11.728;2023-01-15T12:03:22;1.80;;;1.70;;
1294;SDS011;640;48.310;11.728;2023-01-15T12:05:54;1.85;;;1.75;;
1294;SDS011;640;48.310;11.728;2023-01-15T12:08:31;1.90;;;1.80;;
1294;SDS011;640;48.310;11.728;2023-01-15T12:11:07;2.17;;;2.07;;
1294;SDS011;640;48.310;11.728;2023-01-15T12:13:56;1.80;;;1.70;;
1294;SDS011;640;48.310;11.728;2023-01-15T12:16:32;1.90;;;1.80;;
1294;SDS011;640;48.310;11.728;2023-01-15T12:19:04;1.80;;;1.70;;
1294;SDS011;640;48.310;11.728;2023-01-15T12:21:43;1.90;;;1.80;;
1294;SDS011;640;48.310;11.728;2023-01-15T12:30:13;2.35;;;2.25;;
1294;SDS011;640;48.310;11.728;2023-01-15T12:32:49;2.25;;;2.15;;
1294;SDS011;640;48.310;11.728;2023-01-15T12:35:23;2.00;;;1.90;;
1294;SDS011;640;48.310;11.728;2023-01-15T12:37:55;1.85;;;1.75;;
1294;SDS011;640;48.310;11.728;2023-01-15T12:40:28;1.67;;;1.58;;
1294;SDS011;640;48.310;11.728;2023-01-15T12:43:00;1.98;;;1.88;;
1294;SDS011;640;48.310;11.728;2023-01-15T12:45:47;2.30;;;2.20;;
1294;SDS011;640;48.310;11.728;2023-01-15T12:48:18;2.05;;;1.95;;
1294;SDS011;640;48.310;11.728;2023-01-15T12:50:50;2.20;;;2.08;;
1294;SDS011;640;48.310;11.728;2023-01-15T12:53:20;1.48;;;1.38;;
1294;SDS011;640;48.310;11.728;2023-01-15T12:55:52;1.85;;;1.75;;
1294;SDS011;640;48.310;11.728;2023-01-15T12:58:27;2.05;;;1.95;;
1294;SDS011;640;48.310;11.728;2023-01-15T13:01:03;1.85;;;1.70;;
1294;SDS011;640;48.310;11.728;2023-01-15T13:03:35;1.92;;;1.83;;
1294;SDS011;640;48.310;11.728;2023-01-15T13:06:13;2.10;;;2.00;;
1294;SDS011;640;48.310;11.728;2023-01-15T13:08:45;1.60;;;1.50;;
1294;SDS011;640;48.310;11.728;2023-01-15T13:11:19;1.45;;;1.40;;
1294;SDS011;640;48.310;11.728;2023-01-15T13:13:48;1.55;;;1.48;;
1294;SDS011;640;48.310;11.728;2023-01-15T13:16:29;1.70;;;1.60;;
1294;SDS011;640;48.310;11.728;2023-01-15T13:19:07;1.63;;;1.38;;
1294;SDS011;640;48.310;11.728;2023-01-15T13:21:44;1.95;;;1.85;;
1294;SDS011;640;48.310;11.728;2023-01-15T13:24:28;1.33;;;1.33;;
1294;SDS011;640;48.310;11.728;2023-01-15T13:27:11;1.80;;;1.70;;
1294;SDS011;640;48.310;11.728;2023-01-15T13:29:50;1.70;;;1.60;;
1294;SDS011;640;48.310;11.728;2023-01-15T13:32:27;1.75;;;1.65;;
1294;SDS011;640;48.310;11.728;2023-01-15T13:34:58;1.77;;;1.67;;
1294;SDS011;640;48.310;11.728;2023-01-15T13:37:30;2.78;;;1.50;;
1294;SDS011;640;48.310;11.728;2023-01-15T13:40:01;1.77;;;1.67;;
1294;SDS011;640;48.310;11.728;2023-01-15T13:42:32;3.25;;;1.90;;
1294;SDS011;640;48.310;11.728;2023-01-15T13:47:33;1.95;;;1.85;;
1294;SDS011;640;48.310;11.728;2023-01-15T13:50:03;1.63;;;1.52;;
1294;SDS011;640;48.310;11.728;2023-01-15T13:52:33;1.63;;;1.52;;
1294;SDS011;640;48.310;11.728;2023-01-15T13:55:08;2.00;;;1.90;;
1294;SDS011;640;48.310;11.728;2023-01-15T13:57:39;1.70;;;1.60;;
1294;SDS011;640;48.310;11.728;2023-01-15T14:00:24;1.42;;;1.33;;
1294;SDS011;640;48.310;11.728;2023-01-15T14:02:55;1.55;;;1.48;;
1294;SDS011;640;48.310;11.728;2023-01-15T14:05:26;1.80;;;1.70;;
1294;SDS011;640;48.310;11.728;2023-01-15T14:07:56;1.95;;;1.85;;
1294;SDS011;640;48.310;11.728;2023-01-15T14:10:35;1.88;;;1.77;;
1294;SDS011;640;48.310;11.728;2023-01-15T14:16:03;1.50;;;1.40;;
1294;SDS011;640;48.310;11.728;2023-01-15T14:21:30;1.70;;;1.60;;
1294;SDS011;640;48.310;11.728;2023-01-15T14:27:13;1.80;;;1.70;;
1294;SDS011;640;48.310;11.728;2023-01-15T14:29:57;1.90;;;1.80;;
1294;SDS011;640;48.310;11.728;2023-01-15T14:32:41;1.70;;;1.60;;
1294;SDS011;640;48.310;11.728;2023-01-15T14:35:17;1.85;;;1.75;;
1294;SDS011;640;48.310;11.728;2023-01-15T14:37:48;1.70;;;1.60;;
1294;SDS011;640;48.310;11.728;2023-01-15T14:40:20;2.85;;;1.90;;
1294;SDS011;640;48.310;11.728;2023-01-15T14:42:50;1.88;;;1.77;;
1294;SDS011;640;48.310;11.728;2023-01-15T14:45:32;1.35;;;1.35;;
1294;SDS011;640;48.310;11.728;2023-01-15T14:48:03;1.60;;;1.50;;
1294;SDS011;640;48.310;11.728;2023-01-15T14:50:33;1.70;;;1.60;;
1294;SDS011;640;48.310;11.728;2023-01-15T14:53:15;2.17;;;2.08;;
1294;SDS011;640;48.310;11.728;2023-01-15T14:55:50;1.83;;;1.73;;
1294;SDS011;640;48.310;11.728;2023-01-15T14:58:27;2.17;;;2.08;;
1294;SDS011;640;48.310;11.728;2023-01-15T15:01:01;1.70;;;1.60;;
1294;SDS011;640;48.310;11.728;2023-01-15T15:03:42;1.77;;;1.67;;
1294;SDS011;640;48.310;11.728;2023-01-15T15:06:15;1.75;;;1.58;;
1294;SDS011;640;48.310;11.728;2023-01-15T15:08:43;1.88;;;1.77;;
1294;SDS011;640;48.310;11.728;2023-01-15T15:11:14;1.55;;;1.45;;
1294;SDS011;640;48.310;11.728;2023-01-15T15:13:59;1.60;;;1.50;;
1294;SDS011;640;48.310;11.728;2023-01-15T15:16:30;1.50;;;1.40;;
1294;SDS011;640;48.310;11.728;2023-01-15T15:19:00;1.60;;;1.50;;
1294;SDS011;640;48.310;11.728;2023-01-15T15:21:32;1.95;;;1.75;;
1294;SDS011;640;48.310;11.728;2023-01-15T15:24:04;2.25;;;1.98;;
1294;SDS011;640;48.310;11.728;2023-01-15T15:26:37;2.13;;;2.03;;
1294;SDS011;640;48.310;11.728;2023-01-15T15:29:10;1.60;;;1.50;;
1294;SDS011;640;48.310;11.728;2023-01-15T15:31:41;1.88;;;1.77;;
1294;SDS011;640;48.310;11.728;2023-01-15T15:34:13;1.88;;;1.77;;
1294;SDS011;640;48.310;11.728;2023-01-15T15:36:44;2.45;;;2.25;;
1294;SDS011;640;48.310;11.728;2023-01-15T15:39:14;2.15;;;2.05;;
1294;SDS011;640;48.310;11.728;2023-01-15T15:41:46;2.17;;;2.03;;
1294;SDS011;640;48.310;11.728;2023-01-15T15:44:34;2.55;;;2.35;;
1294;SDS011;640;48.310;11.728;2023-01-15T15:47:26;2.15;;;2.05;;
1294;SDS011;640;48.310;11.728;2023-01-15T15:50:18;2.35;;;2.15;;
1294;SDS011;640;48.310;11.728;2023-01-15T15:52:47;1.80;;;1.70;;
1294;SDS011;640;48.310;11.728;2023-01-15T15:55:16;2.00;;;1.90;;
1294;SDS011;640;48.310;11.728;2023-01-15T15:57:47;2.10;;;2.00;;
1294;SDS011;640;48.310;11.728;2023-01-15T16:00:18;2.33;;;2.13;;
1294;SDS011;640;48.310;11.728;2023-01-15T16:02:51;2.70;;;2.50;;
1294;SDS011;640;48.310;11.728;2023-01-15T16:05:21;2.15;;;2.00;;
1294;SDS011;640;48.310;11.728;2023-01-15T16:07:51;1.80;;;1.70;;
1294;SDS011;640;48.310;11.728;2023-01-15T16:10:23;2.00;;;1.90;;
1294;SDS011;640;48.310;11.728;2023-01-15T16:12:53;2.10;;;2.00;;
1294;SDS011;640;48.310;11.728;2023-01-15T16:15:24;1.52;;;1.50;;
1294;SDS011;640;48.310;11.728;2023-01-15T16:17:56;1.83;;;1.73;;
1294;SDS011;640;48.310;11.728;2023-01-15T16:22:54;1.50;;;1.40;;